Latest METARs, TAFs and NOTAMs for ETSI


---------------------------------------------------------------------------
	(OBSERVATIONS)
ETSI 261220Z AUTO 09009KT 4800 // ////// 12/M02 Q1022 ///=
ETSI 261120Z AUTO 12007KT 4700 // ////// 12/M01 Q1022 ///=
ETSI 261020Z AUTO 13006KT 5000 // ////// 11/M02 Q1022 ///=
---------------------------------------------------------------------------
	(FC)
TAF ETSI 241120Z 2412/2421 07009KT 9999 NSW BKN020 BKN240
     BECMG 2419/2421 07007KT 9999 NSW FEW020 BKN280 CANCEL 1200=
---------------------------------------------------------------------------
	(TERMINAL AREA FORECAST)
ETSI 241120Z 2412/2421 07009KT 9999 NSW BKN020 BKN240
    BECMG  2419/2421 07007KT 9999 NSW FEW020 BKN280
    CANCEL 1200=
---------------------------------------------------------------------------
	(NOTAMS)


ETSI P1127/17 RWY25R CABLE NO.2 OUT OF SERVICE. 10 FEB 07:42
    2017 UNTIL 28 APR 12:00 2017. CREATED: 10 FEB 07:50 2017

ETSI P1439/17 PAR 25R/07L OUT OF SERVICE. 24 FEB 06:47 2017 UNTIL
    19 MAY 13:00 2017. CREATED: 24 FEB 06:55 2017

ETSI P1440/17 NO SRA POSSIBLE. 24 FEB 06:51 2017 UNTIL 19 MAY
    13:00 2017. CREATED: 24 FEB 06:56 2017

ETSI P1441/17 LIMITED RADAR COVERAGE BELOW 5000FT MSL. DETAILED
    INFORMATION BY INGO RADAR. 24 FEB 06:54 2017 UNTIL 19 MAY
    13:00 2017. CREATED: 24 FEB 06:57 2017

ETSI P1543/17 PAR 25L/07R OUT 0F SERVICE. 01 MAR 14:42 2017 UNTIL
    19 MAY 12:00 2017. CREATED: 01 MAR 14:50 2017

ETSI P1792/17 NO APCH END ARRESTMENT FOR RWY 07L. 09 MAR 14:09
    2017 UNTIL 09 JUN 12:00 2017. CREATED: 09 MAR 14:12 2017

ETSI P1802/17 RWY25L CABLE NO.3 OUT OF SERVICE. 09 MAR 15:38
    2017 UNTIL 28 APR 12:00 2017. CREATED: 09 MAR 15:44 2017

ETSI P2041/17 PAPI 25R U/S. 17 MAR 10:24 2017 UNTIL 19 MAY 13:00
    2017. CREATED: 17 MAR 10:30 2017

ETSI P2170/17 AERODROME CLOSED EXCEPT CIVIL TRAFFIC. 27 MAR 07:00
    2017 UNTIL 27 MAR 09:00 2017. CREATED: 23 MAR 11:19 2017

ETSI P2192/17 AD MIL OPENING HOURS CHANGED TO: MON-THU 0700-1400
    FR 0700-1100. 27 MAR 08:00 2017 UNTIL 23 JUN 11:00 2017.
    CREATED: 24 MAR 05:13 2017

ETSI P2213/17 CRANE ERECTED AT PSN 484326N0113259E (290M SE THR
    RWY25R) MAX 40M GND/406M MSL DAY AND NIGHT MARKED DAILY 0600-1600.
    28 MAR 06:00 2017 UNTIL 30 MAR 16:00 2017. CREATED: 24 MAR
    12:53 2017

ETSI P2214/17 CRANE ERECTED AT PSN 484326N0113259E (290M SE THR
    RWY25R) MAX 40M GND /406M MSL DAY AND NIGHT MARKED DAILY
    0600-1600. 10 APR 06:00 2017 UNTIL 11 APR 16:00 2017. CREATED:
    24 MAR 12:54 2017

---------------------------------------------------------------------------